Time;durP1;ratioP1;P1;durP2;ratioP2;P2;SDS_P1;SDS_P2;PMS_P1;PMS_P2;Temp;Humidity;BMP_temperature;BMP_pressure;BME280_temperature;BME280_humidity;BME280_pressure;Samples;Min_cycle;Max_cycle;Signal;HPM_P1;HPM_P2
2022/08/28 00:01:09;;;;;;;10.13;6.55;;;;;;;19.10;88.52;101127.41;10574607;28;20036;-77
2022/08/28 00:06:11;;;;;;;8.90;6.40;;;;;;;19.08;88.60;101130.47;10575550;28;20063;-77
2022/08/28 00:11:13;;;;;;;13.00;6.32;;;;;;;19.12;88.32;101127.91;10548756;28;20044;-79
2022/08/28 00:16:17;;;;;;;8.45;5.65;;;;;;;19.12;88.74;101125.13;10568183;28;20055;-77
2022/08/28 00:21:19;;;;;;;13.00;6.65;;;;;;;19.08;88.71;101129.66;10574513;28;20044;-79
2022/08/28 00:31:43;;;;;;;16.67;6.03;;;;;;;19.00;88.38;101122.16;10573237;28;20035;-79
2022/08/28 00:36:45;;;;;;;10.50;6.50;;;;;;;18.97;88.72;101124.44;10573727;28;20047;-79
2022/08/28 00:41:49;;;;;;;16.60;5.80;;;;;;;18.98;88.91;101128.88;10571977;28;20043;-79
2022/08/28 00:46:53;;;;;;;19.23;6.70;;;;;;;18.90;89.45;101124.09;10570506;28;20051;-78
2022/08/28 00:52:10;;;;;;;9.75;6.03;;;;;;;18.80;88.69;101129.97;10572019;28;20039;-79
2022/08/28 00:57:15;;;;;;;10.95;5.95;;;;;;;18.75;88.67;101129.31;10574031;28;20075;-79
2022/08/28 01:02:17;;;;;;;13.80;6.00;;;;;;;18.74;88.64;101130.44;10552882;28;20032;-79
2022/08/28 01:07:22;;;;;;;18.05;6.78;;;;;;;18.77;88.88;101124.25;10573065;28;20094;-79
2022/08/28 01:12:27;;;;;;;12.77;6.53;;;;;;;18.74;89.28;101136.81;10554951;28;20040;-79
2022/08/28 01:17:32;;;;;;;15.13;7.00;;;;;;;18.71;88.89;101131.09;10541207;28;20398;-79
2022/08/28 01:22:46;;;;;;;15.45;7.63;;;;;;;18.66;89.25;101137.63;10587320;28;20402;-79
2022/08/28 01:27:48;;;;;;;19.73;6.22;;;;;;;18.60;89.65;101136.13;10518422;28;20036;-78
2022/08/28 01:32:53;;;;;;;15.48;7.18;;;;;;;18.56;89.71;101140.66;10566824;28;20079;-78
2022/08/28 01:37:56;;;;;;;24.83;7.93;;;;;;;18.50;89.92;101142.78;10553571;28;20039;-78
2022/08/28 01:43:15;;;;;;;21.30;7.30;;;;;;;18.48;90.21;101136.75;10568948;28;20044;-78
2022/08/28 01:48:19;;;;;;;25.67;7.68;;;;;;;18.45;89.58;101140.16;10545826;28;20056;-79
2022/08/28 01:53:26;;;;;;;27.25;6.95;;;;;;;18.41;90.03;101146.69;10570208;28;20048;-79
2022/08/28 01:58:29;;;;;;;25.45;8.07;;;;;;;18.36;89.88;101139.31;10568520;28;20053;-78
2022/08/28 02:03:32;;;;;;;19.08;7.43;;;;;;;18.31;89.95;101140.28;10568823;28;20055;-79
2022/08/28 02:08:35;;;;;;;21.90;6.95;;;;;;;18.25;90.45;101135.19;10552612;28;20040;-77
2022/08/28 02:13:39;;;;;;;20.23;7.45;;;;;;;18.23;90.26;101129.97;10568576;28;20502;-77
2022/08/28 02:18:41;;;;;;;14.10;6.68;;;;;;;18.16;90.91;101132.38;10569642;28;20490;-77
2022/08/28 02:23:43;;;;;;;15.02;7.68;;;;;;;18.19;90.71;101134.50;10569913;28;20047;-78
2022/08/28 02:28:46;;;;;;;11.90;6.18;;;;;;;18.16;90.65;101126.81;10567455;28;20040;-78
2022/08/28 02:33:48;;;;;;;12.85;6.70;;;;;;;18.08;90.69;101125.66;10550912;28;20517;-77
2022/08/28 02:38:51;;;;;;;15.95;6.90;;;;;;;18.07;90.81;101117.63;10597945;28;20047;-77
2022/08/28 02:43:53;;;;;;;16.48;7.30;;;;;;;18.06;91.35;101116.81;10574971;28;20048;-77
2022/08/28 02:48:55;;;;;;;14.68;7.20;;;;;;;18.10;91.16;101113.41;10583860;28;20035;-77
2022/08/28 02:53:57;;;;;;;14.98;7.85;;;;;;;18.08;91.63;101117.31;10592726;28;20036;-78
2022/08/28 02:59:00;;;;;;;15.23;7.60;;;;;;;18.03;92.33;101119.38;10582956;28;20047;-78
2022/08/28 03:04:02;;;;;;;17.95;7.60;;;;;;;18.02;91.59;101121.34;10584091;28;20051;-78
2022/08/28 03:09:04;;;;;;;13.77;6.82;;;;;;;18.10;92.02;101111.44;10570075;28;20122;-78
2022/08/28 03:14:07;;;;;;;16.02;8.40;;;;;;;18.14;91.94;101112.44;10606015;28;20040;-78
2022/08/28 03:19:10;;;;;;;13.02;7.05;;;;;;;18.15;92.10;101114.06;10591362;28;20066;-78
2022/08/28 03:24:12;;;;;;;15.45;7.35;;;;;;;18.27;91.22;101117.06;10586178;28;20041;-78
2022/08/28 03:29:14;;;;;;;19.73;8.63;;;;;;;18.42;91.49;101120.53;10597544;28;20035;-78
2022/08/28 03:34:16;;;;;;;15.18;7.78;;;;;;;18.56;90.74;101124.00;10577478;28;20071;-78
2022/08/28 03:39:18;;;;;;;14.43;8.07;;;;;;;18.72;89.90;101122.44;10578898;28;20840;-78
2022/08/28 03:44:21;;;;;;;17.02;9.07;;;;;;;18.87;89.43;101123.94;10582029;28;20494;-78
2022/08/28 03:49:23;;;;;;;17.45;8.38;;;;;;;19.15;88.08;101127.25;10601140;28;20046;-77
2022/08/28 03:54:25;;;;;;;19.85;9.65;;;;;;;19.43;87.08;101122.94;10584115;28;20044;-79
2022/08/28 03:59:27;;;;;;;12.93;8.90;;;;;;;19.74;85.58;101122.78;10581324;28;20040;-76
2022/08/28 04:04:29;;;;;;;19.00;10.85;;;;;;;20.02;83.64;101119.59;10610363;28;20066;-78
2022/08/28 04:09:31;;;;;;;22.85;11.82;;;;;;;20.26;82.07;101108.66;10584897;28;20051;-79
2022/08/28 04:14:34;;;;;;;17.15;10.85;;;;;;;20.64;81.01;101096.66;10580821;28;20049;-79
2022/08/28 04:19:37;;;;;;;25.17;12.02;;;;;;;20.84;79.42;101103.44;10581092;28;20047;-79
2022/08/28 04:24:39;;;;;;;27.48;14.98;;;;;;;21.05;78.14;101101.47;10597267;28;20632;-79
2022/08/28 04:29:41;;;;;;;29.98;15.35;;;;;;;21.42;76.90;101096.09;10561571;28;20494;-79
2022/08/28 04:34:43;;;;;;;28.95;15.43;;;;;;;21.68;75.60;101102.22;10586778;28;20047;-78
2022/08/28 04:39:45;;;;;;;25.02;14.25;;;;;;;22.03;75.35;101102.63;10600412;28;20051;-78
2022/08/28 04:44:48;;;;;;;24.60;13.70;;;;;;;22.44;74.10;101093.25;10571263;28;20051;-79
2022/08/28 04:49:50;;;;;;;32.10;14.60;;;;;;;22.77;71.90;101083.91;10572324;28;20048;-78
2022/08/28 04:54:52;;;;;;;24.60;13.52;;;;;;;23.20;71.17;101079.59;10569593;28;20052;-79
2022/08/28 04:59:54;;;;;;;25.02;12.52;;;;;;;23.67;70.31;101076.94;10571475;28;20552;-78
2022/08/28 05:04:57;;;;;;;20.05;11.15;;;;;;;24.07;68.68;101076.78;10577618;28;20039;-79
2022/08/28 05:09:59;;;;;;;20.45;12.40;;;;;;;24.51;66.90;101079.50;10580663;28;20031;-75
2022/08/28 05:15:01;;;;;;;27.60;12.38;;;;;;;24.81;65.36;101088.19;10568448;28;20041;-83
2022/08/28 05:20:04;;;;;;;19.83;12.32;;;;;;;25.24;63.86;101073.91;10573737;28;20154;-82
2022/08/28 05:25:07;;;;;;;16.25;11.27;;;;;;;25.40;63.54;101071.03;10577879;28;20068;-84
2022/08/28 05:30:10;;;;;;;18.52;12.27;;;;;;;25.76;62.93;101068.91;10576664;28;20055;-82
2022/08/28 05:35:12;;;;;;;16.08;9.95;;;;;;;26.01;62.09;101056.09;10580506;28;20124;-79
2022/08/28 05:40:15;;;;;;;18.65;11.85;;;;;;;26.55;60.46;101054.94;10559497;28;20051;-83
2022/08/28 05:45:18;;;;;;;18.95;9.68;;;;;;;26.82;60.75;101054.94;10568933;28;20043;-83
2022/08/28 05:50:20;;;;;;;19.55;10.30;;;;;;;27.06;59.24;101054.47;10593199;28;20591;-80
2022/08/28 05:55:22;;;;;;;18.73;11.70;;;;;;;27.21;58.20;101047.81;10573088;28;20298;-80
2022/08/28 06:00:24;;;;;;;15.93;10.38;;;;;;;27.29;58.05;101057.16;10575422;28;20066;-82
2022/08/28 06:05:27;;;;;;;20.70;11.05;;;;;;;27.68;57.54;101048.34;10593900;28;20071;-81
2022/08/28 06:10:29;;;;;;;17.90;10.73;;;;;;;28.01;56.17;101041.81;10562167;28;20048;-81
2022/08/28 06:15:31;;;;;;;19.38;10.45;;;;;;;28.22;56.13;101036.31;10552877;28;20056;-79
2022/08/28 06:20:41;;;;;;;17.00;10.65;;;;;;;28.65;55.29;101036.63;10568404;28;20474;-78
2022/08/28 06:25:47;;;;;;;18.38;11.48;;;;;;;28.91;53.74;101039.22;10567177;28;20494;-78
2022/08/28 06:30:50;;;;;;;18.37;11.03;;;;;;;29.40;53.11;101034.94;10568056;28;20051;-78
2022/08/28 06:35:54;;;;;;;18.48;10.23;;;;;;;29.69;52.37;101030.19;10544368;28;20052;-78
2022/08/28 06:40:56;;;;;;;17.35;9.38;;;;;;;29.62;51.87;101033.78;10518079;28;20415;-78
2022/08/28 06:45:58;;;;;;;12.93;9.77;;;;;;;29.77;51.07;101033.81;10563818;28;20043;-79
2022/08/28 06:51:05;;;;;;;15.13;9.27;;;;;;;30.07;50.88;101037.09;10566895;28;20044;-78
2022/08/28 06:56:19;;;;;;;14.27;8.60;;;;;;;30.37;49.10;101030.97;10548921;28;20035;-79
2022/08/28 07:01:24;;;;;;;15.93;9.75;;;;;;;30.19;49.55;101039.50;10573358;28;20618;-79
2022/08/28 07:06:30;;;;;;;14.50;9.00;;;;;;;30.29;49.22;101044.34;10557909;28;20032;-79
2022/08/28 07:11:34;;;;;;;14.75;7.85;;;;;;;30.39;49.24;101036.25;10557055;28;20044;-79
2022/08/28 07:16:37;;;;;;;13.73;7.82;;;;;;;30.17;48.65;101035.44;10577707;28;20048;-78
2022/08/28 07:21:41;;;;;;;13.35;8.80;;;;;;;30.08;49.21;101033.03;10553430;28;20067;-78
2022/08/28 07:26:45;;;;;;;15.10;8.45;;;;;;;30.21;49.32;101034.25;10563023;28;20036;-79
2022/08/28 07:31:51;;;;;;;11.65;8.70;;;;;;;30.57;48.62;101043.50;10577486;28;20052;-79
2022/08/28 07:36:55;;;;;;;12.30;8.90;;;;;;;30.49;47.98;101039.03;10573082;28;20044;-80
2022/08/28 07:41:57;;;;;;;12.13;8.35;;;;;;;30.38;48.19;101035.44;10576288;28;20040;-79
2022/08/28 07:47:02;;;;;;;11.65;8.27;;;;;;;30.54;47.75;101032.97;10562881;28;20048;-79
2022/08/28 07:52:06;;;;;;;14.45;7.55;;;;;;;30.66;47.54;101040.25;10571026;28;20068;-79
2022/08/28 07:57:09;;;;;;;18.90;8.25;;;;;;;31.04;46.96;101037.69;10574640;28;20043;-77
2022/08/28 08:02:11;;;;;;;14.23;8.80;;;;;;;31.30;46.64;101036.38;10574133;28;20044;-80
2022/08/28 08:07:13;;;;;;;10.30;8.20;;;;;;;31.41;46.38;101040.75;10574121;28;20052;-78
2022/08/28 08:12:15;;;;;;;9.35;8.18;;;;;;;31.86;45.86;101042.91;10574678;28;20047;-78
2022/08/28 08:17:17;;;;;;;12.25;7.70;;;;;;;32.14;45.17;101027.69;10572921;28;20044;-78
2022/08/28 08:22:20;;;;;;;15.73;7.68;;;;;;;32.42;44.11;101030.25;10573877;28;20046;-78
2022/08/28 08:27:22;;;;;;;11.70;8.02;;;;;;;32.61;43.00;101029.63;10572892;28;20039;-77
2022/08/28 08:32:25;;;;;;;14.55;8.15;;;;;;;32.75;42.09;101025.81;10572685;28;20039;-78
2022/08/28 08:37:27;;;;;;;10.32;7.47;;;;;;;32.63;41.52;101030.03;10554884;28;20036;-77
2022/08/28 08:42:31;;;;;;;13.25;7.60;;;;;;;32.84;41.54;101023.31;10573896;28;20040;-76
2022/08/28 08:47:47;;;;;;;8.55;6.82;;;;;;;33.05;40.82;101013.72;10572619;28;20687;-77
2022/08/28 08:53:17;;;;;;;9.35;6.45;;;;;;;32.96;40.56;101021.94;10570789;28;20059;-77
2022/08/28 08:58:29;;;;;;;10.95;6.97;;;;;;;32.48;41.83;101019.25;10571880;28;20406;-77
2022/08/28 09:03:45;;;;;;;10.50;6.95;;;;;;;32.34;40.98;101017.38;10554258;28;20048;-77
2022/08/28 09:08:53;;;;;;;11.23;7.88;;;;;;;32.30;41.77;101017.41;10567893;28;20051;-75
2022/08/28 09:14:09;;;;;;;11.45;7.82;;;;;;;31.83;41.49;101018.22;10570992;28;20031;-75
2022/08/28 09:19:17;;;;;;;11.35;7.82;;;;;;;31.70;41.12;101020.72;10568352;28;20056;-76
2022/08/28 09:24:35;;;;;;;12.88;7.20;;;;;;;31.45;41.71;101013.19;10551787;28;20055;-75
2022/08/28 09:29:41;;;;;;;12.18;8.27;;;;;;;31.10;42.80;101014.19;10570264;28;20048;-75
2022/08/28 09:35:20;;;;;;;13.80;8.13;;;;;;;30.68;43.36;101006.66;10559598;28;20133;-76
2022/08/28 09:43:25;;;;;;;14.85;8.63;;;;;;;30.40;44.41;101007.53;10574386;28;20040;-76
2022/08/28 09:46:43;;;;;;;16.25;9.40;;;;;;;30.11;44.57;101003.13;10571705;28;20040;-78
2022/08/28 09:51:45;;;;;;;12.40;8.82;;;;;;;29.86;44.79;100988.97;10493264;28;20055;-76
2022/08/28 09:56:48;;;;;;;16.58;8.27;;;;;;;29.74;45.43;100989.38;10548627;28;20494;-79
2022/08/28 10:02:01;;;;;;;16.17;7.88;;;;;;;29.67;43.27;100988.13;10570921;28;20051;-78
2022/08/28 10:07:18;;;;;;;9.18;6.85;;;;;;;29.69;42.73;100982.91;10568330;28;20414;-78
2022/08/28 10:12:42;;;;;;;9.45;6.32;;;;;;;29.69;40.56;100982.91;10531533;28;20040;-77
2022/08/28 10:18:12;;;;;;;9.80;6.53;;;;;;;29.64;40.51;100982.47;10553460;28;20039;-78
2022/08/28 10:23:21;;;;;;;10.63;6.80;;;;;;;29.74;41.66;100978.06;10562904;28;20039;-76
2022/08/28 10:28:56;;;;;;;10.88;7.10;;;;;;;29.81;41.32;100980.88;10563382;28;20036;-75
2022/08/28 10:34:27;;;;;;;11.07;6.33;;;;;;;29.76;41.15;100975.63;10569541;28;20040;-76
2022/08/28 10:39:46;;;;;;;10.63;7.13;;;;;;;29.75;40.99;100976.84;10549782;28;20043;-76
2022/08/28 10:44:54;;;;;;;12.80;7.25;;;;;;;29.75;40.21;100965.53;10583475;28;20410;-76
2022/08/28 10:50:01;;;;;;;8.45;5.45;;;;;;;29.72;40.35;100964.31;10565479;28;20043;-77
2022/08/28 10:55:13;;;;;;;10.40;6.28;;;;;;;29.67;40.13;100970.34;10565206;28;20055;-76
2022/08/28 11:00:18;;;;;;;9.05;6.40;;;;;;;29.65;39.51;100953.78;10558829;28;20071;-76
2022/08/28 11:05:22;;;;;;;10.50;6.40;;;;;;;29.67;39.57;100961.88;10565732;28;20036;-76
2022/08/28 11:10:37;;;;;;;8.65;6.25;;;;;;;29.67;39.64;100956.22;10565003;28;20490;-76
2022/08/28 11:15:42;;;;;;;11.50;7.05;;;;;;;29.62;39.22;100953.78;10564989;28;20569;-75
2022/08/28 11:21:02;;;;;;;8.35;5.45;;;;;;;29.53;39.06;100942.91;10565525;28;20044;-76
2022/08/28 11:26:08;;;;;;;10.13;6.32;;;;;;;29.50;38.81;100938.03;10566039;28;20478;-76
2022/08/28 11:31:13;;;;;;;11.02;6.47;;;;;;;29.49;38.94;100939.25;10559338;28;20036;-76
2022/08/28 11:36:18;;;;;;;10.52;5.50;;;;;;;29.42;36.89;100933.56;10561548;28;20032;-76
2022/08/28 11:41:28;;;;;;;7.38;5.63;;;;;;;29.48;37.44;100939.63;10565872;28;20043;-75
2022/08/28 11:46:32;;;;;;;9.35;5.57;;;;;;;29.57;37.60;100929.56;10567054;28;20047;-75
2022/08/28 11:52:04;;;;;;;8.85;6.13;;;;;;;29.65;37.74;100930.34;10572201;28;20436;-75
2022/08/28 11:57:06;;;;;;;14.57;6.28;;;;;;;29.71;37.37;100925.94;10568401;28;20040;-76
2022/08/28 12:02:37;;;;;;;11.23;5.43;;;;;;;29.75;37.73;100920.25;10572769;28;20414;-75
2022/08/28 12:07:46;;;;;;;9.48;5.63;;;;;;;29.66;38.14;100912.97;10587631;28;20039;-78
2022/08/28 12:12:51;;;;;;;8.68;5.45;;;;;;;29.61;38.42;100913.41;10573556;28;20040;-78
2022/08/28 12:17:57;;;;;;;8.18;5.65;;;;;;;29.50;37.63;100911.78;10572650;28;20040;-75
2022/08/28 12:23:22;;;;;;;6.45;5.07;;;;;;;29.40;37.75;100917.00;10562167;28;20044;-76
2022/08/28 12:28:36;;;;;;;8.23;5.35;;;;;;;29.29;37.78;100907.69;10575078;28;20521;-79
2022/08/28 12:33:47;;;;;;;7.68;5.25;;;;;;;29.23;37.97;100900.03;10586759;28;20028;-79
2022/08/28 12:38:50;;;;;;;7.65;5.32;;;;;;;29.16;37.85;100902.81;10572524;28;20048;-76
2022/08/28 12:43:56;;;;;;;8.27;5.22;;;;;;;29.16;38.42;100900.00;10567626;28;20028;-77
2022/08/28 12:49:00;;;;;;;6.87;4.63;;;;;;;29.15;38.00;100901.22;10553405;28;20052;-78
2022/08/28 12:54:06;;;;;;;8.27;5.30;;;;;;;29.18;38.11;100906.09;10555474;28;20069;-75
2022/08/28 12:59:34;;;;;;;8.20;5.43;;;;;;;29.18;37.72;100889.94;10569548;28;20040;-76
2022/08/28 13:04:39;;;;;;;9.93;5.78;;;;;;;29.18;37.80;100892.75;10567608;28;20051;-76
2022/08/28 13:09:46;;;;;;;9.05;5.45;;;;;;;29.20;38.45;100881.06;10576749;28;20043;-78
2022/08/28 13:14:51;;;;;;;13.20;5.55;;;;;;;29.09;38.27;100870.53;10585783;28;20051;-79
2022/08/28 13:20:02;;;;;;;11.63;5.95;;;;;;;28.99;38.57;100865.69;10600380;28;20046;-78
2022/08/28 13:25:06;;;;;;;12.95;5.95;;;;;;;28.91;38.57;100861.22;10587256;28;20040;-78
2022/08/28 13:30:19;;;;;;;7.65;5.25;;;;;;;28.84;38.08;100861.19;10566418;28;20036;-76
2022/08/28 13:35:21;;;;;;;9.23;5.18;;;;;;;28.77;38.36;100866.81;10563254;28;20101;-78
2022/08/28 13:40:52;;;;;;;10.38;5.75;;;;;;;28.75;38.42;100849.47;10566883;28;20425;-78
2022/08/28 13:45:56;;;;;;;11.57;5.95;;;;;;;28.71;38.58;100859.94;10557419;28;20040;-78
2022/08/28 13:51:02;;;;;;;8.10;4.88;;;;;;;28.68;38.60;100844.63;10550825;28;20383;-78
2022/08/28 13:56:04;;;;;;;10.13;5.93;;;;;;;28.66;38.71;100840.56;10570191;28;20043;-77
2022/08/28 14:01:06;;;;;;;8.75;5.55;;;;;;;28.65;38.32;100833.31;10567158;28;20056;-84
2022/08/28 14:06:17;;;;;;;9.27;5.47;;;;;;;28.66;38.79;100832.09;10553649;28;20048;-84
2022/08/28 14:11:19;;;;;;;14.82;6.03;;;;;;;28.62;39.28;100832.06;10569207;28;20048;-82
2022/08/28 14:16:23;;;;;;;8.13;6.03;;;;;;;28.58;39.03;100822.78;10558459;28;20055;-82
2022/08/28 14:21:26;;;;;;;10.20;5.70;;;;;;;28.55;38.72;100817.16;10564633;28;20032;-81
2022/08/28 14:26:29;;;;;;;10.05;5.65;;;;;;;28.48;39.44;100813.09;10551604;28;20040;-79
2022/08/28 14:31:32;;;;;;;11.98;6.13;;;;;;;28.44;39.00;100815.09;10569934;28;20056;-79
2022/08/28 14:36:35;;;;;;;9.32;5.53;;;;;;;28.43;38.90;100807.03;10549606;28;20056;-78
2022/08/28 14:41:41;;;;;;;8.35;5.47;;;;;;;28.40;39.05;100802.97;10562704;28;20538;-77
2022/08/28 14:46:45;;;;;;;9.27;6.23;;;;;;;28.36;39.48;100807.00;10550587;28;20056;-76
2022/08/28 14:51:48;;;;;;;8.07;5.88;;;;;;;28.34;39.57;100803.78;10563789;28;20041;-77
2022/08/28 14:56:51;;;;;;;10.00;6.80;;;;;;;28.33;39.72;100805.81;10569094;28;20043;-77
2022/08/28 15:01:57;;;;;;;9.80;6.28;;;;;;;28.31;39.80;100802.56;10567250;28;20502;-77
2022/08/28 15:07:02;;;;;;;10.80;5.97;;;;;;;28.28;39.97;100806.16;10561112;28;20040;-79
2022/08/28 15:12:05;;;;;;;9.63;6.68;;;;;;;28.27;40.57;100807.38;10561248;28;20054;-79
2022/08/28 15:17:07;;;;;;;8.88;6.43;;;;;;;28.26;40.75;100794.47;10564488;28;20062;-79
2022/08/28 15:22:09;;;;;;;9.57;6.15;;;;;;;28.24;40.95;100791.22;10571635;28;20055;-79
2022/08/28 15:27:12;;;;;;;11.10;6.47;;;;;;;28.22;41.03;100788.78;10554828;28;20414;-78
2022/08/28 15:32:14;;;;;;;11.50;6.45;;;;;;;28.16;41.89;100779.09;10574529;28;20036;-77
2022/08/28 15:37:16;;;;;;;12.20;6.78;;;;;;;28.08;40.56;100785.09;10573259;28;20502;-77
2022/08/28 15:42:19;;;;;;;11.55;5.65;;;;;;;27.99;40.25;100779.84;10572032;28;20032;-77
2022/08/28 15:47:21;;;;;;;7.65;5.28;;;;;;;27.91;40.20;100775.34;10570542;28;20044;-76
2022/08/28 15:52:23;;;;;;;8.82;4.88;;;;;;;27.84;40.23;100778.97;10569193;28;20035;-76
2022/08/28 15:57:26;;;;;;;8.73;5.43;;;;;;;27.77;40.99;100778.09;10538615;28;20036;-77
2022/08/28 16:02:28;;;;;;;12.15;6.28;;;;;;;27.70;40.95;100778.06;10571624;28;20040;-77
2022/08/28 16:07:30;;;;;;;11.55;5.97;;;;;;;27.63;41.31;100785.31;10572582;28;20044;-77
2022/08/28 16:12:33;;;;;;;15.88;5.93;;;;;;;27.59;41.31;100780.78;10573033;28;20060;-78
2022/08/28 16:17:35;;;;;;;9.88;5.43;;;;;;;27.51;42.20;100779.94;10571985;28;20044;-78
2022/08/28 16:22:39;;;;;;;12.48;6.00;;;;;;;27.45;41.84;100789.19;10570144;28;20055;-80
2022/08/28 16:27:41;;;;;;;13.07;7.53;;;;;;;27.39;41.96;100782.28;10574534;28;20043;-82
2022/08/28 16:32:43;;;;;;;9.73;5.57;;;;;;;27.33;42.50;100784.66;10565685;28;20406;-79
2022/08/28 16:37:45;;;;;;;15.57;6.35;;;;;;;27.25;43.51;100785.81;10572794;28;20494;-78
2022/08/28 16:42:48;;;;;;;10.02;6.38;;;;;;;27.16;42.71;100783.34;10574310;28;20497;-78
2022/08/28 16:47:51;;;;;;;8.90;6.07;;;;;;;27.10;43.70;100789.72;10573225;28;20048;-78
2022/08/28 16:52:53;;;;;;;12.85;6.32;;;;;;;27.01;43.69;100792.88;10572191;28;20521;-78
2022/08/28 16:57:56;;;;;;;8.45;5.28;;;;;;;26.92;43.22;100793.16;10570915;28;20051;-78
2022/08/28 17:02:58;;;;;;;11.68;5.80;;;;;;;26.85;43.48;100801.53;10569838;28;20032;-78
2022/08/28 17:08:00;;;;;;;9.23;5.53;;;;;;;26.75;43.46;100791.00;10571085;28;20047;-76
2022/08/28 17:13:03;;;;;;;9.77;6.20;;;;;;;26.67;44.29;100794.94;10554372;28;20036;-76
2022/08/28 17:18:08;;;;;;;10.90;6.03;;;;;;;26.58;43.56;100803.69;10562895;28;20529;-77
2022/08/28 17:23:10;;;;;;;11.45;6.60;;;;;;;26.50;44.39;100802.00;10562558;28;20044;-77
2022/08/28 17:28:13;;;;;;;7.63;4.85;;;;;;;26.44;43.71;100803.53;10569688;28;20032;-76
2022/08/28 17:33:17;;;;;;;10.15;5.75;;;;;;;26.40;44.26;100797.88;10530443;28;20044;-75
2022/08/28 17:38:20;;;;;;;12.50;5.55;;;;;;;26.36;44.03;100799.81;10569406;28;20047;-76
2022/08/28 17:43:22;;;;;;;11.07;6.38;;;;;;;26.33;44.30;100802.56;10570635;28;20512;-76
2022/08/28 17:48:24;;;;;;;8.88;5.97;;;;;;;26.29;44.42;100802.53;10570233;28;20673;-76
2022/08/28 17:53:27;;;;;;;7.85;5.40;;;;;;;26.27;43.69;100804.13;10579344;28;20039;-76
2022/08/28 17:58:29;;;;;;;10.50;6.20;;;;;;;26.24;43.68;100799.25;10611621;28;20493;-76
2022/08/28 18:03:32;;;;;;;8.02;5.53;;;;;;;26.20;44.80;100804.00;10611783;28;20050;-76
2022/08/28 18:08:34;;;;;;;10.18;6.32;;;;;;;26.15;44.67;100794.72;10610862;28;20043;-76
2022/08/28 18:13:36;;;;;;;9.77;5.95;;;;;;;26.12;44.51;100791.88;10575804;28;20058;-76
2022/08/28 18:18:39;;;;;;;14.48;7.70;;;;;;;26.08;45.22;100789.03;10569630;28;20052;-76
2022/08/28 18:23:41;;;;;;;9.43;5.75;;;;;;;26.05;45.08;100783.38;10568234;28;20058;-76
2022/08/28 18:28:43;;;;;;;15.35;5.82;;;;;;;26.02;45.24;100784.91;10560534;28;20044;-76
2022/08/28 18:33:45;;;;;;;11.18;5.32;;;;;;;26.00;44.25;100786.50;10567761;28;20036;-76
2022/08/28 18:38:48;;;;;;;11.50;5.53;;;;;;;25.96;44.82;100786.47;10566770;28;20040;-77
2022/08/28 18:43:52;;;;;;;12.02;5.85;;;;;;;25.91;45.04;100781.19;10572097;28;20040;-77
2022/08/28 18:48:54;;;;;;;11.75;6.82;;;;;;;25.87;45.06;100780.31;10569230;28;20051;-76
2022/08/28 18:53:59;;;;;;;14.50;6.97;;;;;;;25.80;45.75;100774.59;10571371;28;20048;-76
2022/08/28 18:59:05;;;;;;;13.07;7.28;;;;;;;25.74;45.01;100776.13;10600426;28;20097;-76
2022/08/28 19:04:07;;;;;;;11.48;7.68;;;;;;;25.67;46.08;100775.97;10626405;27;20053;-76
2022/08/28 19:09:09;;;;;;;14.43;7.00;;;;;;;25.61;45.88;100766.28;10600041;28;20040;-76
2022/08/28 19:14:11;;;;;;;11.40;7.55;;;;;;;25.54;46.60;100767.81;10583031;28;20055;-76
2022/08/28 19:19:14;;;;;;;13.13;8.20;;;;;;;25.46;46.61;100766.06;10583409;28;20060;-76
2022/08/28 19:24:16;;;;;;;12.90;8.10;;;;;;;25.41;47.22;100757.16;10582843;28;20060;-76
2022/08/28 19:29:18;;;;;;;17.20;8.27;;;;;;;25.34;47.93;100760.69;10583173;28;20035;-76
2022/08/28 19:34:21;;;;;;;14.52;8.07;;;;;;;25.30;47.27;100761.81;10582808;28;20387;-76
2022/08/28 19:39:24;;;;;;;13.45;7.80;;;;;;;25.24;48.56;100758.50;10579837;28;20050;-76
2022/08/28 19:44:26;;;;;;;13.15;8.05;;;;;;;25.15;48.72;100761.56;10581494;28;20044;-76
2022/08/28 19:49:28;;;;;;;13.65;7.55;;;;;;;25.09;47.72;100768.72;10562951;28;20181;-75
2022/08/28 19:54:30;;;;;;;14.90;7.93;;;;;;;25.01;48.57;100766.97;10567082;28;20041;-76
2022/08/28 19:59:33;;;;;;;16.58;8.45;;;;;;;24.95;48.28;100769.25;10573814;28;20040;-76
2022/08/28 20:04:36;;;;;;;14.00;8.15;;;;;;;24.89;48.72;100764.34;10581472;28;20055;-76
2022/08/28 20:09:44;;;;;;;11.98;7.75;;;;;;;24.83;49.43;100761.03;10598222;28;20036;-75
2022/08/28 20:14:46;;;;;;;13.85;8.60;;;;;;;24.74;49.87;100766.09;10584307;28;20426;-76
2022/08/28 20:19:48;;;;;;;16.15;8.80;;;;;;;24.64;49.95;100761.91;10574182;28;20040;-76
2022/08/28 20:24:50;;;;;;;15.15;8.52;;;;;;;24.58;50.59;100754.16;10571696;28;20047;-75
2022/08/28 20:29:53;;;;;;;17.85;9.10;;;;;;;24.48;50.91;100757.59;10571231;28;20537;-76
2022/08/28 20:34:55;;;;;;;20.85;8.85;;;;;;;24.43;51.49;100757.88;10565525;28;20035;-77
2022/08/28 20:39:57;;;;;;;14.82;8.45;;;;;;;24.37;52.35;100760.19;10552180;28;20422;-76
2022/08/28 20:45:00;;;;;;;12.45;8.10;;;;;;;24.32;52.24;100769.72;10567839;28;20066;-77
2022/08/28 20:50:02;;;;;;;14.55;8.13;;;;;;;24.25;51.77;100765.94;10569393;28;20067;-77
2022/08/28 20:55:33;;;;;;;18.98;10.48;;;;;;;24.20;54.68;100783.88;10569844;28;20052;-77
2022/08/28 21:00:35;;;;;;;25.08;12.35;;;;;;;23.81;55.90;100793.47;10581078;28;20054;-76
2022/08/28 21:05:38;;;;;;;18.02;10.25;;;;;;;23.56;57.25;100798.47;10572482;28;20045;-76
2022/08/28 21:10:43;;;;;;;15.52;9.70;;;;;;;23.34;57.02;100792.38;10590965;28;20048;-74
2022/08/28 21:15:45;;;;;;;14.15;8.55;;;;;;;23.22;56.82;100794.47;10571837;28;20032;-76
2022/08/28 21:20:48;;;;;;;17.80;8.93;;;;;;;23.14;57.43;100788.69;10569025;28;20409;-75
2022/08/28 21:25:50;;;;;;;14.98;8.88;;;;;;;23.09;57.07;100785.38;10565141;28;20036;-75
2022/08/28 21:30:53;;;;;;;14.98;8.75;;;;;;;23.05;58.34;100790.03;10565365;28;20492;-75
2022/08/28 21:35:55;;;;;;;17.08;9.48;;;;;;;22.94;58.15;100792.59;10556327;28;20394;-75
2022/08/28 21:41:00;;;;;;;13.98;8.40;;;;;;;22.79;59.19;100787.78;10591798;28;20052;-74
2022/08/28 21:46:04;;;;;;;19.90;9.55;;;;;;;22.68;60.86;100784.69;10566476;28;20052;-79
2022/08/28 21:51:11;;;;;;;17.23;9.27;;;;;;;22.50;61.61;100775.00;10563640;28;20035;-75
2022/08/28 21:56:42;;;;;;;15.50;9.57;;;;;;;22.30;62.33;100788.03;10570095;28;20418;-77
2022/08/28 22:01:45;;;;;;;15.88;9.30;;;;;;;22.08;63.50;100774.66;10601317;28;20056;-81
2022/08/28 22:06:47;;;;;;;14.70;10.13;;;;;;;21.89;64.93;100780.84;10558257;28;20036;-77
2022/08/28 22:11:49;;;;;;;20.83;10.23;;;;;;;21.69;65.96;100782.63;10564426;28;20054;-75
2022/08/28 22:16:51;;;;;;;13.63;7.75;;;;;;;21.42;67.45;100772.22;10570131;28;20052;-74
2022/08/28 22:27:14;;;;;;;19.35;8.88;;;;;;;20.93;69.83;100766.63;10588902;28;20414;-75
2022/08/28 22:32:17;;;;;;;16.35;9.50;;;;;;;20.78;70.57;100760.56;10564889;28;20032;-76
2022/08/28 22:37:19;;;;;;;14.45;9.40;;;;;;;20.67;71.64;100750.25;10569408;28;20040;-76
2022/08/28 22:42:21;;;;;;;15.30;8.93;;;;;;;20.61;72.13;100754.38;10572471;28;20520;-75
2022/08/28 22:47:25;;;;;;;17.05;10.00;;;;;;;20.58;72.50;100755.09;10567399;28;20052;-75
2022/08/28 22:52:27;;;;;;;14.02;7.88;;;;;;;20.46;73.31;100745.53;10568702;28;20055;-76
2022/08/28 22:57:31;;;;;;;14.35;8.30;;;;;;;20.41;73.14;100745.75;10569644;28;20044;-75
2022/08/28 23:02:36;;;;;;;11.77;7.75;;;;;;;20.37;73.90;100728.06;10564846;28;20508;-75
2022/08/28 23:07:39;;;;;;;13.02;7.93;;;;;;;20.40;73.86;100729.34;10551309;28;20051;-75
2022/08/28 23:12:42;;;;;;;14.05;7.50;;;;;;;20.42;73.89;100733.44;10563971;28;20074;-75
2022/08/28 23:17:44;;;;;;;10.73;5.75;;;;;;;20.44;74.78;100716.38;10568270;28;20048;-75